createdAt,value
2023-03-26T00:00:33.653Z,10.22
2023-03-26T00:01:36.574Z,10.18
2023-03-26T00:02:39.808Z,10.09
2023-03-26T00:03:44.709Z,10.21
2023-03-26T00:04:47.774Z,10.26
2023-03-26T00:05:54.571Z,10.17
2023-03-26T00:07:00.859Z,10.11
2023-03-26T00:08:06.236Z,10.16
2023-03-26T00:09:13.927Z,10.16
2023-03-26T00:10:17.324Z,10.14
2023-03-26T00:11:23.313Z,10.13
2023-03-26T00:12:27.874Z,10.07
2023-03-26T00:13:32.809Z,10.16
2023-03-26T00:14:38.158Z,10.21
2023-03-26T00:15:41.639Z,10.11
2023-03-26T00:16:45.465Z,10.16
2023-03-26T00:17:51.188Z,10.15
2023-03-26T00:18:55.381Z,10.25
2023-03-26T00:20:00.346Z,10.09
2023-03-26T00:21:05.045Z,10.25
2023-03-26T00:22:07.601Z,10.32
2023-03-26T00:23:11.174Z,10.33
2023-03-26T00:24:15.845Z,10.16
2023-03-26T00:25:20.211Z,10.17
2023-03-26T00:26:24.821Z,10.12
2023-03-26T00:27:29.674Z,10.12
2023-03-26T00:28:33.193Z,10.17
2023-03-26T00:29:36.799Z,10.21
2023-03-26T00:30:41.904Z,10.24
2023-03-26T00:31:46.529Z,10.21
2023-03-26T00:32:53.753Z,10.27
2023-03-26T00:33:57.762Z,10.11
2023-03-26T00:35:03.205Z,10.18
2023-03-26T00:36:13.348Z,10.19
2023-03-26T00:37:19.406Z,10.23
2023-03-26T00:38:24.474Z,10.12
2023-03-26T00:39:30.774Z,10.16
2023-03-26T00:40:37.183Z,10.15
2023-03-26T00:41:43.456Z,10.13
2023-03-26T00:42:48.100Z,10.26
2023-03-26T00:43:53.582Z,10.30
2023-03-26T00:44:58.663Z,10.30
2023-03-26T00:46:02.890Z,10.30
2023-03-26T00:47:06.309Z,10.26
2023-03-26T00:48:09.838Z,10.20
2023-03-26T00:49:18.841Z,10.13
2023-03-26T00:50:24.455Z,10.04
2023-03-26T00:51:29.705Z,10.17
2023-03-26T00:52:32.781Z,10.17
2023-03-26T00:53:37.053Z,10.27
2023-03-26T00:54:39.721Z,10.32
2023-03-26T00:55:44.374Z,10.31
2023-03-26T00:56:47.219Z,10.37
2023-03-26T00:57:51.752Z,10.34
2023-03-26T00:58:54.472Z,10.37
2023-03-26T00:59:57.977Z,10.27
2023-03-26T01:01:03.638Z,10.31
2023-03-26T01:02:08.986Z,10.38
2023-03-26T01:03:21.887Z,10.38
2023-03-26T01:04:28.754Z,10.29
2023-03-26T01:05:36.913Z,10.16
2023-03-26T01:06:42.488Z,10.16
2023-03-26T01:07:46.463Z,10.22
2023-03-26T01:08:52.023Z,10.31
2023-03-26T01:09:58.869Z,10.17
2023-03-26T01:11:12.078Z,10.27
2023-03-26T01:12:17.893Z,10.34
2023-03-26T01:13:22.650Z,10.38
2023-03-26T01:14:27.511Z,10.36
2023-03-26T01:15:31.728Z,10.27
2023-03-26T01:16:39.744Z,10.33
2023-03-26T01:17:45.035Z,10.50
2023-03-26T01:18:49.564Z,10.43
2023-03-26T01:19:56.830Z,10.28
2023-03-26T01:21:03.137Z,10.45
2023-03-26T01:22:10.209Z,10.47
2023-03-26T01:23:14.762Z,10.45
2023-03-26T01:24:21.387Z,10.41
2023-03-26T01:25:25.819Z,10.41
2023-03-26T01:26:31.128Z,10.46
2023-03-26T01:27:40.585Z,10.38
2023-03-26T01:28:44.089Z,10.46
2023-03-26T01:30:01.955Z,10.52
2023-03-26T01:31:08.226Z,10.55
2023-03-26T01:32:19.102Z,10.48
2023-03-26T01:33:31.534Z,10.35
2023-03-26T01:34:36.913Z,10.46
2023-03-26T01:35:46.934Z,10.44
2023-03-26T01:36:53.849Z,10.50
2023-03-26T01:38:16.572Z,10.53
2023-03-26T01:39:24.880Z,10.40
2023-03-26T01:40:38.205Z,10.56
2023-03-26T01:41:56.856Z,10.56
2023-03-26T01:43:07.883Z,10.57
2023-03-26T01:44:16.950Z,10.56
2023-03-26T01:45:27.114Z,10.49
2023-03-26T01:46:35.540Z,10.49
2023-03-26T01:47:39.998Z,10.54
2023-03-26T01:48:46.724Z,10.55
2023-03-26T01:49:49.893Z,10.56
2023-03-26T01:50:54.934Z,10.63
2023-03-26T01:51:59.526Z,10.57
2023-03-26T01:53:02.942Z,10.57
2023-03-26T01:54:08.002Z,10.45
2023-03-26T01:55:13.492Z,10.56
2023-03-26T01:56:19.810Z,10.64
2023-03-26T01:57:35.132Z,10.69
2023-03-26T01:58:41.859Z,10.74
2023-03-26T01:59:57.680Z,10.81
2023-03-26T02:01:04.066Z,10.86
2023-03-26T02:02:14.996Z,10.77
2023-03-26T02:03:21.197Z,10.76
2023-03-26T02:04:34.273Z,10.74
2023-03-26T02:05:39.659Z,10.69
2023-03-26T02:06:47.451Z,10.79
2023-03-26T02:07:57.636Z,10.73
2023-03-26T02:09:03.329Z,10.70
2023-03-26T02:10:09.656Z,10.70
2023-03-26T02:11:16.757Z,10.81
2023-03-26T02:12:22.104Z,10.87
2023-03-26T02:13:26.224Z,10.89
2023-03-26T02:14:29.211Z,10.84
2023-03-26T02:15:35.051Z,10.86
2023-03-26T02:16:39.849Z,10.79
2023-03-26T02:17:43.917Z,10.90
2023-03-26T02:18:50.339Z,10.99
2023-03-26T02:19:55.488Z,11.04
2023-03-26T02:20:58.909Z,11.08
2023-03-26T02:22:02.426Z,11.10
2023-03-26T02:23:09.478Z,11.15
2023-03-26T02:24:12.992Z,11.19
2023-03-26T02:25:18.360Z,11.14
2023-03-26T02:26:21.143Z,11.15
2023-03-26T02:27:31.372Z,11.16
2023-03-26T02:28:35.353Z,11.15
2023-03-26T02:29:39.892Z,11.19
2023-03-26T02:30:46.673Z,11.15
2023-03-26T02:31:51.532Z,11.19
2023-03-26T02:32:54.934Z,11.21
2023-03-26T02:34:00.169Z,11.24
2023-03-26T02:35:06.314Z,11.27
2023-03-26T02:36:12.494Z,11.14
2023-03-26T02:37:19.505Z,11.15
2023-03-26T02:38:27.672Z,11.28
2023-03-26T02:39:30.576Z,11.34
2023-03-26T02:40:35.743Z,11.35
2023-03-26T02:41:39.769Z,11.30
2023-03-26T02:42:44.108Z,11.27
2023-03-26T02:43:47.949Z,11.09
2023-03-26T02:44:52.586Z,11.21
2023-03-26T02:45:57.389Z,11.14
2023-03-26T02:47:10.965Z,11.00
2023-03-26T02:48:31.193Z,10.99
2023-03-26T02:49:38.993Z,11.19
2023-03-26T02:50:43.739Z,11.33
2023-03-26T02:51:57.542Z,11.25
2023-03-26T02:53:03.026Z,11.40
2023-03-26T02:54:08.047Z,11.40
2023-03-26T02:55:14.361Z,11.42
2023-03-26T02:56:20.695Z,11.42
2023-03-26T02:57:32.032Z,11.42
2023-03-26T02:58:36.265Z,11.57
2023-03-26T02:59:39.598Z,11.71
2023-03-26T03:00:46.901Z,11.67
2023-03-26T03:01:55.109Z,11.63
2023-03-26T03:02:59.959Z,11.52
2023-03-26T03:04:08.313Z,11.51
2023-03-26T03:05:12.538Z,11.57
2023-03-26T03:06:19.393Z,11.60
2023-03-26T03:07:25.617Z,11.59
2023-03-26T03:08:29.015Z,11.59
2023-03-26T03:09:37.010Z,11.55
2023-03-26T03:11:00.738Z,11.57
2023-03-26T03:12:08.984Z,11.37
2023-03-26T03:13:12.384Z,11.36
2023-03-26T03:14:18.399Z,11.15
2023-03-26T03:15:24.727Z,11.22
2023-03-26T03:16:28.357Z,11.32
2023-03-26T03:17:33.094Z,11.26
2023-03-26T03:18:37.030Z,11.25
2023-03-26T03:19:40.936Z,11.08
2023-03-26T03:20:44.783Z,11.17
2023-03-26T03:21:48.153Z,11.13
2023-03-26T03:22:51.974Z,11.05
2023-03-26T03:23:56.510Z,11.04
2023-03-26T03:25:02.017Z,10.99
2023-03-26T03:26:07.607Z,10.91
2023-03-26T03:27:12.391Z,10.95
2023-03-26T03:28:20.675Z,10.99
2023-03-26T03:29:25.528Z,10.79
2023-03-26T03:30:31.332Z,10.76
2023-03-26T03:31:45.270Z,10.95
2023-03-26T03:32:51.558Z,10.88
2023-03-26T03:33:56.160Z,10.84
2023-03-26T03:35:02.176Z,10.91
2023-03-26T03:36:20.595Z,10.95
2023-03-26T03:37:18.442Z,10.90
2023-03-26T03:38:25.019Z,10.69
2023-03-26T03:39:31.934Z,10.61
2023-03-26T03:40:34.752Z,10.55
2023-03-26T03:41:38.079Z,10.59
2023-03-26T03:42:42.911Z,10.55
2023-03-26T03:43:46.853Z,10.64
2023-03-26T03:44:54.905Z,10.55
2023-03-26T03:46:03.809Z,10.60
2023-03-26T03:47:09.874Z,10.63
2023-03-26T03:48:14.529Z,10.49
2023-03-26T03:49:20.029Z,10.62
2023-03-26T03:50:24.778Z,10.57
2023-03-26T03:51:39.145Z,10.65
2023-03-26T03:52:45.473Z,10.65
2023-03-26T03:53:51.032Z,10.67
2023-03-26T03:54:57.795Z,10.64
2023-03-26T03:56:06.261Z,10.66
2023-03-26T03:57:17.332Z,10.67
2023-03-26T03:58:25.041Z,10.66
2023-03-26T03:59:28.118Z,10.60
2023-03-26T04:00:31.717Z,10.63
2023-03-26T04:01:38.483Z,10.48
2023-03-26T04:02:46.841Z,10.62
2023-03-26T04:03:50.060Z,10.68
2023-03-26T04:04:53.908Z,10.80
2023-03-26T04:05:58.329Z,10.91
2023-03-26T04:07:02.565Z,11.04
2023-03-26T04:08:08.707Z,11.09
2023-03-26T04:09:13.737Z,11.06
2023-03-26T04:10:17.449Z,10.93
2023-03-26T04:11:31.471Z,10.92
2023-03-26T04:12:56.690Z,10.97
2023-03-26T04:15:12.233Z,10.97
2023-03-26T04:16:17.022Z,10.88
2023-03-26T04:17:22.495Z,10.90
2023-03-26T04:18:29.242Z,11.00
2023-03-26T04:19:34.309Z,11.03
2023-03-26T04:20:42.555Z,10.92
2023-03-26T04:21:46.108Z,10.92
2023-03-26T04:22:50.034Z,10.92
2023-03-26T04:23:53.849Z,10.92
2023-03-26T04:25:04.252Z,10.90
2023-03-26T04:26:12.999Z,10.99
2023-03-26T04:27:26.122Z,10.87
2023-03-26T04:28:31.466Z,10.81
2023-03-26T04:29:51.459Z,10.96
2023-03-26T04:31:01.275Z,10.89
2023-03-26T04:32:14.472Z,10.96
2023-03-26T04:33:17.979Z,10.87
2023-03-26T04:34:24.954Z,10.94
2023-03-26T04:35:34.865Z,10.89
2023-03-26T04:36:45.968Z,10.93
2023-03-26T04:37:49.514Z,10.95
2023-03-26T04:38:55.454Z,10.91
2023-03-26T04:40:00.539Z,10.86
2023-03-26T04:41:07.079Z,11.03
2023-03-26T04:42:21.014Z,11.12
2023-03-26T04:43:28.515Z,11.10
2023-03-26T04:44:35.544Z,11.19
2023-03-26T04:45:42.907Z,11.21
2023-03-26T04:46:45.628Z,11.00
2023-03-26T04:47:52.682Z,11.01
2023-03-26T04:48:57.080Z,11.10
2023-03-26T04:50:01.533Z,11.28
2023-03-26T04:51:07.752Z,11.26
2023-03-26T04:52:12.803Z,11.20
2023-03-26T04:53:19.140Z,11.18
2023-03-26T04:54:25.570Z,11.33
2023-03-26T04:55:37.902Z,11.30
2023-03-26T04:56:56.838Z,11.31
2023-03-26T04:58:05.097Z,11.38
2023-03-26T04:59:15.442Z,11.48
2023-03-26T05:00:19.754Z,11.41
2023-03-26T05:01:25.172Z,11.23
2023-03-26T05:02:29.490Z,11.04
2023-03-26T05:03:33.713Z,10.97
2023-03-26T05:04:41.860Z,10.85
2023-03-26T05:05:45.636Z,10.87
2023-03-26T05:06:51.335Z,11.10
2023-03-26T05:07:56.815Z,11.09
2023-03-26T05:09:03.260Z,11.21
2023-03-26T05:10:08.837Z,11.23
2023-03-26T05:11:14.234Z,11.14
2023-03-26T05:12:16.906Z,11.15
2023-03-26T05:13:30.745Z,11.21
2023-03-26T05:14:36.484Z,11.33
2023-03-26T05:15:41.505Z,11.25
2023-03-26T05:16:50.868Z,11.40
2023-03-26T05:17:56.400Z,11.61
2023-03-26T05:19:14.141Z,11.56
2023-03-26T05:20:24.158Z,11.56
2023-03-26T05:21:27.975Z,11.93
2023-03-26T05:22:30.645Z,13.95
2023-03-26T05:23:44.167Z,14.77
2023-03-26T05:24:48.609Z,15.78
2023-03-26T05:25:53.946Z,17.02
2023-03-26T05:27:00.005Z,17.42
2023-03-26T05:28:07.204Z,17.21
2023-03-26T05:29:15.683Z,17.07
2023-03-26T05:30:21.757Z,17.16
2023-03-26T05:31:29.184Z,18.02
2023-03-26T05:32:32.995Z,17.57
2023-03-26T05:33:36.673Z,17.55
2023-03-26T05:34:45.759Z,17.20
2023-03-26T05:35:51.731Z,16.92
2023-03-26T05:36:55.156Z,15.48
2023-03-26T05:38:18.102Z,15.36
2023-03-26T05:39:23.417Z,16.31
2023-03-26T05:40:41.511Z,16.54
2023-03-26T05:41:44.904Z,15.85
2023-03-26T05:42:51.028Z,15.59
2023-03-26T05:44:14.223Z,15.00
2023-03-26T05:45:17.765Z,14.91
2023-03-26T05:46:22.675Z,14.64
2023-03-26T05:47:27.736Z,14.47
2023-03-26T05:48:31.339Z,14.14
2023-03-26T05:49:35.143Z,14.31
2023-03-26T05:50:39.073Z,14.47
2023-03-26T05:51:44.450Z,14.19
2023-03-26T05:53:06.235Z,14.09
2023-03-26T05:54:28.745Z,14.14
2023-03-26T05:57:05.352Z,13.81
2023-03-26T05:58:28.865Z,13.84
2023-03-26T05:59:35.226Z,13.76
2023-03-26T06:00:58.646Z,13.68
2023-03-26T06:02:09.377Z,13.58
2023-03-26T06:03:27.992Z,13.40
2023-03-26T06:04:46.730Z,13.47
2023-03-26T06:05:52.884Z,13.67
2023-03-26T06:07:00.150Z,13.97
2023-03-26T06:08:03.238Z,14.06
2023-03-26T06:09:08.282Z,14.19
2023-03-26T06:10:18.061Z,14.13
2023-03-26T06:11:19.582Z,14.13
2023-03-26T06:12:25.409Z,13.97
2023-03-26T06:13:29.537Z,13.96
2023-03-26T06:14:33.354Z,14.13
2023-03-26T06:15:41.907Z,14.08
2023-03-26T06:17:04.285Z,14.05
2023-03-26T06:18:09.529Z,14.13
2023-03-26T06:19:24.140Z,14.00
2023-03-26T06:20:37.972Z,14.26
2023-03-26T06:21:43.475Z,14.72
2023-03-26T06:22:48.859Z,14.95
2023-03-26T06:23:54.871Z,15.03
2023-03-26T06:25:19.383Z,15.14
2023-03-26T06:26:24.531Z,15.50
2023-03-26T06:27:32.650Z,16.17
2023-03-26T06:28:41.168Z,16.17
2023-03-26T06:29:49.912Z,16.13
2023-03-26T06:30:55.388Z,16.06
2023-03-26T06:32:19.811Z,16.02
2023-03-26T06:33:21.106Z,15.94
2023-03-26T06:34:28.829Z,15.96
2023-03-26T06:35:31.902Z,16.37
2023-03-26T06:36:36.306Z,16.49
2023-03-26T06:37:39.917Z,16.70
2023-03-26T06:38:43.647Z,17.55
2023-03-26T06:39:46.509Z,17.51
2023-03-26T06:40:55.716Z,17.80
2023-03-26T06:42:03.740Z,17.57
2023-03-26T06:43:13.944Z,17.36
2023-03-26T06:44:19.644Z,17.41
2023-03-26T06:45:36.099Z,17.30
2023-03-26T06:46:44.211Z,17.35
2023-03-26T06:48:06.961Z,17.46
2023-03-26T06:50:27.095Z,18.31
2023-03-26T06:51:43.433Z,18.21
2023-03-26T06:53:05.320Z,18.01
2023-03-26T06:54:11.437Z,17.74
2023-03-26T06:55:19.224Z,17.83
2023-03-26T06:56:41.956Z,18.08
2023-03-26T06:57:54.146Z,19.46
2023-03-26T06:59:08.717Z,20.32
2023-03-26T07:01:36.215Z,19.65
2023-03-26T07:02:58.303Z,19.06
2023-03-26T07:04:21.387Z,19.39
2023-03-26T07:05:43.517Z,20.88
2023-03-26T07:07:07.000Z,22.32
2023-03-26T07:09:24.021Z,24.65
2023-03-26T07:10:35.244Z,24.85
2023-03-26T07:11:41.491Z,25.23
2023-03-26T07:13:05.025Z,25.29
2023-03-26T07:14:26.108Z,25.46
2023-03-26T07:15:43.811Z,25.39
2023-03-26T07:16:49.535Z,24.97
2023-03-26T07:18:08.674Z,25.39
2023-03-26T07:19:13.847Z,25.58
2023-03-26T07:20:19.969Z,25.20
2023-03-26T07:21:23.870Z,25.16
2023-03-26T07:22:27.928Z,25.58
2023-03-26T07:23:45.327Z,25.18
2023-03-26T07:25:00.381Z,25.40
2023-03-26T07:26:22.923Z,25.77
2023-03-26T07:27:33.226Z,24.87
2023-03-26T07:28:41.377Z,24.59
2023-03-26T07:30:04.358Z,24.36
2023-03-26T07:31:27.705Z,24.40
2023-03-26T07:32:47.114Z,23.99
2023-03-26T07:34:08.137Z,24.45
2023-03-26T07:35:18.354Z,24.12
2023-03-26T07:36:37.082Z,24.14
2023-03-26T07:37:44.869Z,24.09
2023-03-26T07:39:17.006Z,24.45
2023-03-26T07:40:41.895Z,25.12
2023-03-26T07:42:15.603Z,25.69
2023-03-26T07:43:55.347Z,26.21
2023-03-26T07:45:15.863Z,27.23
2023-03-26T07:46:40.952Z,26.45
2023-03-26T07:47:50.565Z,27.37
2023-03-26T07:48:59.272Z,27.38
2023-03-26T07:50:12.377Z,27.88
2023-03-26T07:51:20.603Z,28.15
2023-03-26T07:52:37.085Z,28.56
2023-03-26T07:53:49.562Z,29.02
2023-03-26T07:55:16.565Z,27.75
2023-03-26T07:56:46.786Z,28.49
2023-03-26T07:58:11.317Z,28.23
2023-03-26T07:59:54.008Z,26.82
2023-03-26T08:01:18.160Z,26.80
2023-03-26T08:02:29.321Z,27.14
2023-03-26T08:03:39.650Z,27.03
2023-03-26T08:05:03.837Z,26.71
2023-03-26T08:06:26.107Z,25.99
2023-03-26T08:07:55.391Z,25.47
2023-03-26T08:09:02.546Z,25.51
2023-03-26T08:10:18.880Z,25.36
2023-03-26T08:11:28.680Z,25.32
2023-03-26T08:12:42.914Z,26.44
2023-03-26T08:39:52.581Z,19.99
2023-03-26T08:40:58.030Z,21.24
2023-03-26T08:42:17.806Z,21.46
2023-03-26T08:43:38.081Z,21.02
2023-03-26T08:44:59.006Z,19.92
2023-03-26T08:46:13.236Z,19.16
2023-03-26T08:47:38.495Z,18.40
2023-03-26T08:48:48.871Z,18.26
2023-03-26T08:50:11.562Z,18.15
2023-03-26T08:51:35.051Z,18.80
2023-03-26T08:52:42.921Z,19.19
2023-03-26T08:54:01.944Z,18.98
2023-03-26T08:55:10.531Z,19.16
2023-03-26T08:56:28.466Z,19.65
2023-03-26T08:57:47.960Z,19.79
2023-03-26T08:58:52.794Z,19.99
2023-03-26T09:00:17.045Z,19.75
2023-03-26T09:01:27.436Z,19.55
2023-03-26T09:02:48.786Z,19.75
2023-03-26T09:04:00.553Z,20.14
2023-03-26T09:05:07.186Z,20.13
2023-03-26T09:06:30.004Z,20.03
2023-03-26T09:07:36.946Z,19.44
2023-03-26T09:08:53.661Z,19.68
2023-03-26T09:10:12.460Z,19.74
2023-03-26T09:11:27.453Z,19.68
2023-03-26T09:12:50.269Z,19.56
2023-03-26T09:14:11.748Z,19.29
2023-03-26T09:15:22.671Z,19.47
2023-03-26T09:16:42.907Z,19.27
2023-03-26T09:18:05.247Z,19.22
2023-03-26T09:19:14.238Z,19.57
2023-03-26T09:20:18.760Z,19.43
2023-03-26T09:21:36.878Z,19.22
2023-03-26T09:23:00.383Z,19.17
2023-03-26T09:24:08.782Z,19.46
2023-03-26T09:25:33.346Z,19.65
2023-03-26T09:26:59.036Z,19.63
2023-03-26T09:28:11.417Z,19.62
2023-03-26T09:29:33.213Z,19.46
2023-03-26T09:30:54.312Z,19.80
2023-03-26T09:32:10.190Z,19.60
2023-03-26T09:33:21.432Z,19.49
2023-03-26T09:34:32.131Z,19.23
2023-03-26T09:35:58.322Z,19.12
2023-03-26T09:37:15.420Z,18.78
2023-03-26T09:38:19.626Z,18.56
2023-03-26T09:39:34.757Z,18.77
2023-03-26T09:40:45.447Z,19.01
2023-03-26T09:41:53.024Z,19.17
2023-03-26T09:43:05.403Z,19.17
2023-03-26T09:44:14.008Z,18.72
2023-03-26T09:45:24.212Z,18.70
2023-03-26T09:46:29.283Z,18.34
2023-03-26T09:47:35.576Z,18.32
2023-03-26T09:48:44.126Z,17.98
2023-03-26T09:49:49.830Z,18.19
2023-03-26T09:51:03.565Z,18.29
2023-03-26T09:52:26.692Z,18.37
2023-03-26T09:53:35.436Z,18.73
2023-03-26T09:54:48.602Z,18.81
2023-03-26T09:56:12.140Z,18.57
2023-03-26T09:57:18.879Z,18.59
2023-03-26T09:58:39.588Z,18.65
2023-03-26T09:59:47.585Z,18.70
2023-03-26T10:00:53.966Z,18.46
2023-03-26T10:01:58.685Z,18.50
2023-03-26T10:03:16.234Z,18.56
2023-03-26T10:04:27.145Z,18.66
2023-03-26T10:05:41.835Z,18.42
2023-03-26T10:07:03.848Z,18.22
2023-03-26T10:08:21.250Z,17.95
2023-03-26T10:09:29.109Z,17.80
2023-03-26T10:10:46.670Z,18.34
2023-03-26T10:12:02.318Z,18.74
2023-03-26T10:13:15.003Z,18.82
2023-03-26T10:14:19.830Z,18.88
2023-03-26T10:15:38.382Z,18.88
2023-03-26T10:16:48.402Z,18.50
2023-03-26T10:18:01.851Z,18.97
2023-03-26T10:19:23.992Z,19.05
2023-03-26T10:20:30.198Z,19.09
2023-03-26T10:21:48.999Z,18.59
2023-03-26T10:23:01.986Z,18.26
2023-03-26T10:24:06.945Z,18.12
2023-03-26T10:25:21.716Z,18.03
2023-03-26T10:26:39.026Z,17.58
2023-03-26T10:28:00.792Z,17.65
2023-03-26T10:29:06.607Z,17.71
2023-03-26T10:30:21.068Z,17.65
2023-03-26T10:31:26.496Z,18.06
2023-03-26T10:32:35.582Z,18.16
2023-03-26T10:33:44.021Z,18.69
2023-03-26T10:34:48.869Z,18.85
2023-03-26T10:36:14.308Z,18.81
2023-03-26T10:37:22.199Z,18.79
2023-03-26T10:38:36.887Z,18.67
2023-03-26T10:40:01.209Z,18.73
2023-03-26T10:41:10.227Z,18.61
2023-03-26T10:42:25.116Z,18.70
2023-03-26T10:43:33.294Z,18.67
2023-03-26T10:44:58.235Z,18.41
2023-03-26T10:46:13.304Z,18.26
2023-03-26T10:47:37.673Z,17.75
2023-03-26T10:48:52.204Z,17.52
2023-03-26T10:50:23.029Z,17.31
2023-03-26T10:51:41.917Z,17.10
2023-03-26T10:52:47.974Z,16.92
2023-03-26T10:53:55.209Z,16.89
2023-03-26T10:55:03.400Z,16.91
2023-03-26T10:56:12.558Z,16.82
2023-03-26T10:57:18.065Z,16.68
2023-03-26T10:58:23.592Z,16.76
2023-03-26T10:59:30.413Z,16.66
2023-03-26T11:00:35.665Z,16.48
2023-03-26T11:01:43.401Z,16.32
2023-03-26T11:03:05.904Z,16.23
2023-03-26T11:04:30.695Z,16.06
2023-03-26T11:05:35.861Z,15.89
2023-03-26T11:06:45.630Z,15.76
2023-03-26T11:08:11.274Z,15.55
2023-03-26T11:09:22.516Z,15.57
2023-03-26T11:10:28.945Z,15.49
2023-03-26T11:11:44.234Z,15.30
2023-03-26T11:12:49.296Z,15.28
2023-03-26T11:13:53.386Z,15.32
2023-03-26T11:14:58.017Z,15.42
2023-03-26T11:16:09.078Z,15.54
2023-03-26T11:17:40.596Z,15.50
2023-03-26T11:18:34.946Z,15.50
2023-03-26T11:19:42.853Z,15.45
2023-03-26T11:20:53.456Z,15.54
2023-03-26T11:22:11.778Z,15.68
2023-03-26T11:23:20.080Z,15.73
2023-03-26T11:24:42.806Z,15.72
2023-03-26T11:26:03.344Z,15.70
2023-03-26T11:27:27.436Z,15.73
2023-03-26T11:28:31.690Z,15.54
2023-03-26T11:29:42.581Z,15.44
2023-03-26T11:30:52.797Z,15.62
2023-03-26T11:32:07.472Z,15.85
2023-03-26T11:33:14.089Z,15.90
2023-03-26T11:34:22.909Z,16.08
2023-03-26T11:35:40.499Z,16.24
2023-03-26T11:36:39.778Z,16.21
2023-03-26T11:37:45.318Z,16.26
2023-03-26T11:38:50.646Z,16.27
2023-03-26T11:39:58.362Z,16.25
2023-03-26T11:41:02.978Z,16.16
2023-03-26T11:42:24.855Z,15.86
2023-03-26T11:43:35.235Z,15.75
2023-03-26T11:44:39.998Z,15.82
2023-03-26T11:45:45.301Z,16.00
2023-03-26T11:46:50.494Z,16.02
2023-03-26T11:47:55.213Z,16.21
2023-03-26T11:49:03.506Z,16.12
2023-03-26T11:50:07.859Z,16.29
2023-03-26T11:51:13.263Z,16.15
2023-03-26T11:52:17.390Z,16.27
2023-03-26T11:53:22.250Z,16.35
2023-03-26T11:54:25.652Z,16.37
2023-03-26T11:55:29.471Z,16.18
2023-03-26T11:56:35.152Z,15.99
2023-03-26T11:57:42.276Z,16.00
2023-03-26T11:58:52.615Z,15.91
2023-03-26T12:00:01.662Z,15.93
2023-03-26T12:01:08.848Z,16.16
2023-03-26T12:02:13.203Z,16.16
2023-03-26T12:03:16.899Z,16.13
2023-03-26T12:04:39.658Z,16.06
2023-03-26T12:05:50.503Z,16.16
2023-03-26T12:06:57.826Z,15.91
2023-03-26T12:08:03.629Z,15.84
2023-03-26T12:09:11.770Z,16.05
2023-03-26T12:10:23.958Z,16.06
2023-03-26T12:11:34.674Z,16.22
2023-03-26T12:12:39.523Z,16.07
2023-03-26T12:13:47.113Z,16.41
2023-03-26T12:14:53.965Z,16.76
2023-03-26T12:16:02.199Z,16.95
2023-03-26T12:17:10.365Z,17.17
2023-03-26T12:18:21.608Z,17.34
2023-03-26T12:19:25.725Z,17.36
2023-03-26T12:20:32.230Z,17.34
2023-03-26T12:21:47.063Z,17.45
2023-03-26T12:22:52.546Z,17.44
2023-03-26T12:24:00.607Z,17.39
2023-03-26T12:25:12.109Z,17.36
2023-03-26T12:26:16.730Z,17.28
2023-03-26T12:27:22.949Z,16.85
2023-03-26T12:28:27.147Z,16.62
2023-03-26T12:29:36.242Z,16.85
2023-03-26T12:30:41.933Z,16.83
2023-03-26T12:31:53.590Z,16.79
2023-03-26T12:33:06.230Z,16.98
2023-03-26T12:34:16.291Z,16.46
2023-03-26T12:35:22.097Z,16.32
2023-03-26T12:36:31.847Z,16.28
2023-03-26T12:37:38.722Z,16.46
2023-03-26T12:38:43.869Z,16.58
2023-03-26T12:40:08.168Z,16.56
2023-03-26T12:40:53.692Z,16.51
2023-03-26T12:44:45.138Z,16.47
2023-03-26T12:44:53.578Z,16.42
2023-03-26T12:44:54.131Z,16.50
2023-03-26T12:45:31.644Z,16.31
2023-03-26T12:47:55.587Z,16.28
2023-03-26T12:47:58.146Z,16.45
2023-03-26T12:48:56.326Z,16.26
2023-03-26T12:50:00.074Z,16.42
2023-03-26T12:51:11.178Z,16.47
2023-03-26T12:52:31.820Z,16.46
2023-03-26T12:53:53.931Z,16.41
2023-03-26T12:55:12.008Z,16.41
2023-03-26T12:56:16.312Z,16.18
2023-03-26T12:57:27.460Z,16.17
2023-03-26T12:58:50.858Z,16.00
2023-03-26T12:59:59.610Z,15.96
2023-03-26T13:01:16.952Z,15.74
2023-03-26T13:02:23.027Z,15.69
2023-03-26T13:03:30.946Z,15.55
2023-03-26T13:04:39.533Z,15.74
2023-03-26T13:06:03.185Z,15.95
2023-03-26T13:07:09.631Z,15.81
2023-03-26T13:08:29.831Z,15.87
2023-03-26T13:09:34.878Z,15.93
2023-03-26T13:10:46.135Z,15.83
2023-03-26T13:11:57.494Z,15.91
2023-03-26T13:13:03.918Z,15.95
2023-03-26T13:14:15.150Z,15.80
2023-03-26T13:15:20.543Z,15.90
2023-03-26T13:16:31.809Z,15.90
2023-03-26T13:17:40.760Z,15.74
2023-03-26T13:18:52.569Z,15.75
2023-03-26T13:19:59.613Z,15.76
2023-03-26T13:21:24.490Z,15.68
2023-03-26T13:22:46.741Z,15.40
2023-03-26T13:23:52.249Z,15.32
2023-03-26T13:24:56.811Z,15.53
2023-03-26T13:26:07.534Z,15.44
2023-03-26T13:27:24.059Z,15.37
2023-03-26T13:28:42.850Z,15.51
2023-03-26T13:29:57.953Z,15.73
2023-03-26T13:31:05.944Z,15.72
2023-03-26T13:32:23.343Z,15.81
2023-03-26T13:33:27.754Z,15.91
2023-03-26T13:34:40.244Z,15.93
2023-03-26T13:36:06.565Z,15.97
2023-03-26T13:37:05.360Z,15.98
2023-03-26T13:38:11.012Z,15.98
2023-03-26T13:39:19.116Z,15.89
2023-03-26T13:40:42.740Z,15.89
2023-03-26T13:41:47.434Z,15.63
2023-03-26T13:43:03.788Z,15.78
2023-03-26T13:44:12.405Z,15.75
2023-03-26T13:45:23.175Z,15.63
2023-03-26T13:46:37.420Z,15.32
2023-03-26T13:47:45.484Z,15.28
2023-03-26T13:48:51.417Z,14.96
2023-03-26T13:49:58.213Z,14.93
2023-03-26T13:51:10.087Z,15.00
2023-03-26T13:52:15.363Z,14.92
2023-03-26T13:53:24.099Z,15.01
2023-03-26T13:54:36.698Z,15.04
2023-03-26T13:55:47.467Z,15.00
2023-03-26T13:56:53.756Z,14.82
2023-03-26T13:58:01.613Z,14.71
2023-03-26T13:59:10.146Z,14.60
2023-03-26T14:00:20.176Z,14.52
2023-03-26T14:01:26.659Z,14.53
2023-03-26T14:02:32.137Z,14.48
2023-03-26T14:03:43.837Z,14.59
2023-03-26T14:04:50.433Z,14.64
2023-03-26T14:05:56.230Z,14.76
2023-03-26T14:07:01.927Z,14.83
2023-03-26T14:08:10.157Z,14.91
2023-03-26T14:09:18.021Z,15.01
2023-03-26T14:10:22.790Z,15.11
2023-03-26T14:11:33.384Z,15.25
2023-03-26T14:12:45.041Z,15.30
2023-03-26T14:13:53.677Z,15.41
2023-03-26T14:15:06.225Z,15.45
2023-03-26T14:16:14.509Z,15.38
2023-03-26T14:17:37.127Z,15.53
2023-03-26T14:18:48.024Z,15.57
2023-03-26T14:19:53.167Z,15.63
2023-03-26T14:20:58.358Z,15.47
2023-03-26T14:22:16.702Z,15.35
2023-03-26T14:23:22.074Z,15.16
2023-03-26T14:24:44.166Z,15.20
2023-03-26T14:26:07.433Z,15.14
2023-03-26T14:27:17.179Z,15.01
2023-03-26T14:28:40.023Z,14.94
2023-03-26T14:30:03.378Z,14.91
2023-03-26T14:31:07.627Z,14.95
2023-03-26T14:32:24.097Z,14.95
2023-03-26T14:33:31.125Z,14.87
2023-03-26T14:34:51.576Z,15.05
2023-03-26T14:35:56.439Z,14.93
2023-03-26T14:37:07.168Z,14.84
2023-03-26T14:38:18.534Z,14.46
2023-03-26T14:39:31.789Z,14.53
2023-03-26T14:40:44.896Z,14.64
2023-03-26T14:41:52.166Z,14.51
2023-03-26T14:43:00.358Z,14.61
2023-03-26T14:44:21.004Z,14.75
2023-03-26T14:45:35.367Z,14.78
2023-03-26T14:46:53.451Z,14.60
2023-03-26T14:47:57.880Z,14.27
2023-03-26T14:49:09.914Z,14.02
2023-03-26T14:50:21.887Z,14.13
2023-03-26T14:51:48.260Z,14.21
2023-03-26T14:53:00.981Z,14.13
2023-03-26T14:54:03.301Z,14.35
2023-03-26T14:55:07.761Z,14.45
2023-03-26T14:56:28.915Z,14.31
2023-03-26T14:57:42.134Z,14.32
2023-03-26T14:58:56.382Z,14.54
2023-03-26T15:00:11.067Z,14.54
2023-03-26T15:01:23.703Z,14.64
2023-03-26T15:02:47.287Z,14.70
2023-03-26T15:04:05.169Z,14.59
2023-03-26T15:05:12.422Z,14.58
2023-03-26T15:06:23.773Z,14.42
2023-03-26T15:07:32.072Z,14.11
2023-03-26T15:08:42.447Z,13.97
2023-03-26T15:10:05.983Z,13.95
2023-03-26T15:11:31.513Z,13.94
2023-03-26T15:12:42.903Z,13.94
2023-03-26T15:13:52.051Z,13.87
2023-03-26T15:15:02.766Z,13.77
2023-03-26T15:16:10.991Z,13.78
2023-03-26T15:17:21.495Z,13.76
2023-03-26T15:18:30.725Z,13.81
2023-03-26T15:19:38.955Z,13.87
2023-03-26T15:20:43.403Z,13.89
2023-03-26T15:22:05.450Z,13.82
2023-03-26T15:23:25.873Z,13.78
2023-03-26T15:24:42.036Z,13.79
2023-03-26T15:26:04.650Z,13.63
2023-03-26T15:27:09.179Z,13.61
2023-03-26T15:28:33.618Z,13.61
2023-03-26T15:29:43.992Z,13.67
2023-03-26T15:30:58.881Z,13.61
2023-03-26T15:32:13.354Z,13.45
2023-03-26T15:33:35.658Z,13.45
2023-03-26T15:34:57.534Z,13.38